createdAt,value
2023-04-12T00:01:09.087Z,96117.56
2023-04-12T00:03:36.355Z,96114.31
2023-04-12T00:06:03.744Z,96117.19
2023-04-12T00:08:33.764Z,96105.28
2023-04-12T00:11:03.753Z,96101.72
2023-04-12T00:13:30.989Z,96099.09
2023-04-12T00:15:58.041Z,96094.84
2023-04-12T00:18:25.599Z,96090.25
2023-04-12T00:20:53.202Z,96086.25
2023-04-12T00:23:20.598Z,96079.03
2023-04-12T00:25:47.777Z,96071.81
2023-04-12T00:28:15.934Z,96077.91
2023-04-12T00:30:43.198Z,96065.81
2023-04-12T00:33:10.051Z,96071.66
2023-04-12T00:35:37.073Z,96068.53
2023-04-12T00:38:06.141Z,96069.56
2023-04-12T00:40:33.186Z,96059.72
2023-04-12T00:43:00.611Z,96061.88
2023-04-12T00:45:27.712Z,96058.28
2023-04-12T00:47:56.439Z,96054.84
2023-04-12T00:50:24.036Z,96049.41
2023-04-12T00:52:52.906Z,96048.03
2023-04-12T00:55:20.034Z,96058.28
2023-04-12T00:57:46.941Z,96056.50
2023-04-12T01:00:14.188Z,96058.50
2023-04-12T01:02:50.574Z,96052.50
2023-04-12T01:05:23.460Z,96045.81
2023-04-12T01:08:12.111Z,96049.88
2023-04-12T01:10:50.016Z,96038.63
2023-04-12T01:13:40.711Z,96027.78
2023-04-12T01:16:46.145Z,96023.72
2023-04-12T01:19:34.183Z,96024.75
2023-04-12T01:22:46.070Z,96024.97
2023-04-12T01:25:39.538Z,96024.13
2023-04-12T01:28:10.684Z,96028.19
2023-04-12T01:30:39.524Z,96024.25
2023-04-12T01:33:10.844Z,96023.47
2023-04-12T01:35:38.275Z,96023.69
2023-04-12T01:38:06.596Z,96023.09
2023-04-12T01:40:33.555Z,96018.50
2023-04-12T01:43:12.315Z,96020.72
2023-04-12T01:45:39.694Z,96020.69
2023-04-12T01:48:10.115Z,96022.75
2023-04-12T01:51:11.719Z,96026.75
2023-04-12T01:54:11.023Z,96021.34
2023-04-12T01:56:41.909Z,96018.38
2023-04-12T01:59:10.132Z,96024.63
2023-04-12T02:01:37.479Z,96021.22
2023-04-12T02:04:06.469Z,96009.91
2023-04-12T02:06:34.151Z,96016.72
2023-04-12T02:09:03.736Z,96011.28
2023-04-12T02:11:30.773Z,96014.31
2023-04-12T02:13:58.074Z,96004.44
2023-04-12T02:16:25.350Z,96008.63
2023-04-12T02:18:52.214Z,96010.69
2023-04-12T02:21:19.149Z,96005.47
2023-04-12T02:23:45.973Z,95998.41
2023-04-12T02:26:13.058Z,96001.81
2023-04-12T02:28:39.886Z,95998.16
2023-04-12T02:31:07.356Z,95991.09
2023-04-12T02:33:34.771Z,96001.00
2023-04-12T02:36:02.697Z,95990.91
2023-04-12T02:38:30.179Z,95988.72
2023-04-12T02:40:57.381Z,95999.00
2023-04-12T02:43:24.185Z,95987.69
2023-04-12T02:45:51.155Z,95992.38
2023-04-12T02:48:18.002Z,95990.56
2023-04-12T02:50:44.847Z,95993.16
2023-04-12T02:53:11.664Z,95991.75
2023-04-12T02:55:38.971Z,95986.72
2023-04-12T02:58:06.028Z,95990.13
2023-04-12T03:00:33.081Z,95984.50
2023-04-12T03:03:03.060Z,95990.97
2023-04-12T03:05:30.211Z,95986.13
2023-04-12T03:07:57.052Z,95985.09
2023-04-12T03:10:23.964Z,95983.06
2023-04-12T03:12:50.998Z,95977.63
2023-04-12T03:15:18.024Z,95978.44
2023-04-12T03:17:44.985Z,95974.38
2023-04-12T03:20:13.501Z,95971.19
2023-04-12T03:22:40.417Z,95971.59
2023-04-12T03:25:09.661Z,95963.94
2023-04-12T03:27:36.525Z,95956.84
2023-04-12T03:30:03.992Z,95962.09
2023-04-12T03:32:30.950Z,95955.84
2023-04-12T03:34:57.872Z,95966.47
2023-04-12T03:37:24.815Z,95960.66
2023-04-12T03:39:51.683Z,95954.63
2023-04-12T03:42:31.678Z,95965.06
2023-04-12T03:44:59.600Z,95957.00
2023-04-12T03:47:26.441Z,95955.63
2023-04-12T03:50:10.317Z,95952.22
2023-04-12T03:52:38.536Z,95949.41
2023-04-12T03:55:07.341Z,95944.16
2023-04-12T03:57:34.820Z,95942.16
2023-04-12T04:00:02.415Z,95938.13
2023-04-12T04:02:29.431Z,95946.38
2023-04-12T04:04:56.481Z,95934.47
2023-04-12T04:07:23.464Z,95928.81
2023-04-12T04:09:50.438Z,95922.38
2023-04-12T04:12:17.362Z,95917.53
2023-04-12T04:14:44.417Z,95925.19
2023-04-12T04:17:11.272Z,95923.97
2023-04-12T04:19:38.579Z,95910.25
2023-04-12T04:22:05.443Z,95914.28
2023-04-12T04:24:34.217Z,95910.66
2023-04-12T04:27:01.034Z,95912.88
2023-04-12T04:29:29.136Z,95917.09
2023-04-12T04:31:57.422Z,95910.66
2023-04-12T04:34:25.500Z,95907.44
2023-04-12T04:36:52.806Z,95912.06
2023-04-12T04:39:19.906Z,95907.44
2023-04-12T04:41:46.852Z,95911.88
2023-04-12T04:44:14.262Z,95902.97
2023-04-12T04:46:41.339Z,95898.34
2023-04-12T04:49:08.149Z,95891.72
2023-04-12T04:51:35.051Z,95892.28
2023-04-12T04:54:02.283Z,95889.28
2023-04-12T04:56:29.257Z,95895.34
2023-04-12T04:58:57.143Z,95894.53
2023-04-12T05:01:28.505Z,95889.28
2023-04-12T05:03:56.053Z,95888.28
2023-04-12T05:06:23.482Z,95880.38
2023-04-12T05:08:52.440Z,95877.97
2023-04-12T05:11:20.514Z,95875.09
2023-04-12T05:13:47.341Z,95870.66
2023-04-12T05:16:14.241Z,95867.63
2023-04-12T05:18:41.177Z,95876.72
2023-04-12T05:21:08.260Z,95863.78
2023-04-12T05:23:44.823Z,95861.94
2023-04-12T05:26:11.983Z,95864.16
2023-04-12T05:28:38.926Z,95865.97
2023-04-12T05:31:06.222Z,95854.88
2023-04-12T05:33:34.624Z,95860.09
2023-04-12T05:36:02.082Z,95851.25
2023-04-12T05:38:28.981Z,95843.16
2023-04-12T05:40:55.855Z,95847.22
2023-04-12T05:43:22.657Z,95838.28
2023-04-12T05:45:51.391Z,95842.31
2023-04-12T05:48:19.174Z,95838.25
2023-04-12T05:50:53.670Z,95836.22
2023-04-12T05:53:21.860Z,95824.91
2023-04-12T05:55:48.758Z,95817.84
2023-04-12T05:58:15.685Z,95809.97
2023-04-12T06:00:42.542Z,95815.84
2023-04-12T06:03:11.604Z,95807.97
2023-04-12T06:05:39.306Z,95807.94
2023-04-12T06:08:08.311Z,95807.56
2023-04-12T06:10:35.342Z,95801.44
2023-04-12T06:13:02.263Z,95806.31
2023-04-12T06:15:31.831Z,95797.25
2023-04-12T06:17:59.798Z,95794.47
2023-04-12T06:20:27.006Z,95792.06
2023-04-12T06:22:53.960Z,95795.25
2023-04-12T06:25:21.321Z,95798.47
2023-04-12T06:27:48.145Z,95801.78
2023-04-12T06:30:15.095Z,95792.00
2023-04-12T06:32:42.355Z,95788.72
2023-04-12T06:35:09.424Z,95787.72
2023-04-12T06:37:36.336Z,95782.56
2023-04-12T06:40:03.223Z,95787.34
2023-04-12T06:42:30.249Z,95778.97
2023-04-12T06:44:57.102Z,95776.69
2023-04-12T06:47:25.390Z,95772.03
2023-04-12T06:49:56.098Z,95774.22
2023-04-12T06:52:26.742Z,95771.66
2023-04-12T06:54:56.096Z,95764.88
2023-04-12T06:57:23.418Z,95759.03
2023-04-12T06:59:50.496Z,95762.19
2023-04-12T07:02:17.541Z,95756.88
2023-04-12T07:04:44.431Z,95759.63
2023-04-12T07:07:11.429Z,95759.56
2023-04-12T07:09:38.290Z,95760.88
2023-04-12T07:12:05.482Z,95756.56
2023-04-12T07:14:32.337Z,95751.69
2023-04-12T07:16:59.162Z,95748.69
2023-04-12T07:19:26.066Z,95742.03
2023-04-12T07:21:52.913Z,95737.53
2023-04-12T07:24:19.678Z,95738.44
2023-04-12T07:26:46.661Z,95741.34
2023-04-12T07:29:13.505Z,95734.03
2023-04-12T07:31:40.424Z,95732.69
2023-04-12T07:34:07.361Z,95737.50
2023-04-12T07:36:34.312Z,95723.63
2023-04-12T07:39:01.171Z,95715.72
2023-04-12T07:41:28.745Z,95715.56
2023-04-12T07:43:55.761Z,95717.19
2023-04-12T07:46:22.877Z,95704.72
2023-04-12T07:48:51.050Z,95697.50
2023-04-12T07:51:18.010Z,95686.69
2023-04-12T07:53:48.199Z,95685.78
2023-04-12T07:56:15.901Z,95692.56
2023-04-12T07:58:42.785Z,95688.91
2023-04-12T08:01:12.261Z,95691.25
2023-04-12T08:03:39.201Z,95688.78
2023-04-12T08:06:06.695Z,95682.59
2023-04-12T08:08:33.785Z,95681.28
2023-04-12T08:11:02.805Z,95685.16
2023-04-12T08:13:29.692Z,95680.88
2023-04-12T08:15:56.534Z,95681.78
2023-04-12T08:18:23.404Z,95682.41
2023-04-12T08:20:50.245Z,95676.94
2023-04-12T08:23:18.186Z,95680.06
2023-04-12T08:25:45.160Z,95665.94
2023-04-12T08:28:12.402Z,95669.94
2023-04-12T08:30:39.307Z,95664.91
2023-04-12T08:33:06.511Z,95655.13
2023-04-12T08:35:33.799Z,95657.09
2023-04-12T08:38:06.722Z,95643.34
2023-04-12T08:40:34.162Z,95650.03
2023-04-12T08:43:05.766Z,95642.50
2023-04-12T08:45:35.325Z,95629.38
2023-04-12T08:48:04.524Z,95631.59
2023-04-12T08:50:32.428Z,95622.53
2023-04-12T08:52:59.922Z,95623.84
2023-04-12T08:55:26.757Z,95623.03
2023-04-12T08:57:58.815Z,95610.41
2023-04-12T09:00:26.663Z,95613.53
2023-04-12T09:02:53.697Z,95612.13
2023-04-12T09:05:23.061Z,95600.84
2023-04-12T09:07:50.042Z,95584.13
2023-04-12T09:10:37.953Z,95594.47
2023-04-12T09:13:05.835Z,95591.84
2023-04-12T09:15:34.025Z,95594.66
2023-04-12T09:18:09.087Z,95594.50
2023-04-12T09:20:37.171Z,95593.84
2023-04-12T09:23:36.146Z,95582.59
2023-04-12T09:26:03.459Z,95553.34
2023-04-12T09:28:31.331Z,95559.19
2023-04-12T09:31:00.104Z,95544.59
2023-04-12T09:33:36.691Z,95562.00
2023-04-12T09:36:06.831Z,95553.25
2023-04-12T09:38:36.685Z,95548.56
2023-04-12T09:41:26.435Z,95549.59
2023-04-12T09:43:53.879Z,95548.72
2023-04-12T09:46:20.839Z,95540.53
2023-04-12T09:49:03.097Z,95547.69
2023-04-12T09:51:32.829Z,95543.72
2023-04-12T09:54:03.168Z,95542.13
2023-04-12T09:56:34.248Z,95531.53
2023-04-12T09:59:03.631Z,95519.69
2023-04-12T10:01:36.815Z,95522.34
2023-04-12T10:04:06.005Z,95504.03
2023-04-12T10:06:41.492Z,95511.06
2023-04-12T10:09:08.929Z,95493.47
2023-04-12T10:11:37.443Z,95495.47
2023-04-12T10:14:06.031Z,95489.56
2023-04-12T10:16:35.033Z,95487.88
2023-04-12T10:19:04.078Z,95477.66
2023-04-12T10:21:31.503Z,95467.28
2023-04-12T10:23:58.737Z,95474.56
2023-04-12T10:26:26.599Z,95459.97
2023-04-12T10:29:31.882Z,95461.72
2023-04-12T10:32:20.724Z,95460.28
2023-04-12T10:34:58.770Z,95457.72
2023-04-12T10:38:01.287Z,95455.66
2023-04-12T10:40:33.217Z,95452.81
2023-04-12T10:43:18.952Z,95445.50
2023-04-12T10:45:46.004Z,95433.84
2023-04-12T10:48:34.548Z,95432.53
2023-04-12T10:51:26.620Z,95433.13
2023-04-12T10:54:14.651Z,95431.72
2023-04-12T10:56:46.687Z,95427.81
2023-04-12T10:59:14.777Z,95413.34
2023-04-12T11:02:03.084Z,95414.81
2023-04-12T11:04:30.477Z,95413.50
2023-04-12T11:07:01.737Z,95403.00
2023-04-12T11:09:34.330Z,95389.78
2023-04-12T11:12:04.027Z,95398.28
2023-04-12T11:14:36.054Z,95396.28
2023-04-12T11:17:06.253Z,95395.09
2023-04-12T11:20:04.771Z,95383.91
2023-04-12T11:22:33.406Z,95391.88
2023-04-12T11:25:02.205Z,95377.72
2023-04-12T11:27:31.646Z,95383.56
2023-04-12T11:30:00.806Z,95388.22
2023-04-12T11:32:30.664Z,95386.25
2023-04-12T11:34:58.630Z,95380.84
2023-04-12T11:37:27.021Z,95399.03
2023-04-12T11:39:57.253Z,95378.00
2023-04-12T11:42:26.307Z,95354.16
2023-04-12T11:44:57.407Z,95359.44
2023-04-12T11:47:26.850Z,95367.66
2023-04-12T11:49:59.377Z,95386.78
2023-04-12T11:52:32.127Z,95395.31
2023-04-12T11:55:06.767Z,95386.50
2023-04-12T11:57:34.862Z,95361.28
2023-04-12T12:00:05.895Z,95353.84
2023-04-12T12:02:41.190Z,95350.13
2023-04-12T12:05:16.831Z,95352.78
2023-04-12T12:07:44.061Z,95356.50
2023-04-12T12:10:11.465Z,95355.97
2023-04-12T12:12:38.323Z,95360.22
2023-04-12T12:15:06.008Z,95347.97
2023-04-12T12:17:38.830Z,95364.47
2023-04-12T12:20:06.795Z,95375.88
2023-04-12T12:22:34.746Z,95372.44
2023-04-12T12:25:01.582Z,95371.53
2023-04-12T12:27:38.535Z,95364.69
2023-04-12T12:30:09.438Z,95365.75
2023-04-12T12:32:39.168Z,95340.00
2023-04-12T12:35:14.039Z,95333.91
2023-04-12T12:37:52.563Z,95345.31
2023-04-12T12:40:34.559Z,95341.88
2023-04-12T12:43:01.508Z,95319.78
2023-04-12T12:45:31.677Z,95326.72
2023-04-12T12:48:00.678Z,95321.75
2023-04-12T12:50:30.938Z,95320.91
2023-04-12T12:52:59.173Z,95321.66
2023-04-12T12:55:26.932Z,95318.41
2023-04-12T12:58:07.600Z,95311.47
2023-04-12T13:00:35.388Z,95319.69
2023-04-12T13:03:03.064Z,95305.78
2023-04-12T13:05:30.347Z,95307.91
2023-04-12T13:07:57.203Z,95305.31
2023-04-12T13:10:24.161Z,95303.13
2023-04-12T13:12:51.419Z,95297.22
2023-04-12T13:15:23.121Z,95288.63
2023-04-12T13:17:53.103Z,95288.75
2023-04-12T13:20:20.254Z,95285.41
2023-04-12T13:22:47.083Z,95288.38
2023-04-12T13:25:14.018Z,95280.28
2023-04-12T13:27:40.969Z,95277.31
2023-04-12T13:30:08.597Z,95282.88
2023-04-12T13:32:35.898Z,95271.69
2023-04-12T13:35:04.113Z,95270.53
2023-04-12T13:37:31.412Z,95260.72
2023-04-12T13:39:58.298Z,95265.81
2023-04-12T13:42:25.444Z,95257.31
2023-04-12T13:44:52.287Z,95251.50
2023-04-12T13:47:19.187Z,95240.63
2023-04-12T13:49:46.287Z,95245.88
2023-04-12T13:52:13.427Z,95242.59
2023-04-12T13:54:41.012Z,95238.44
2023-04-12T13:57:08.103Z,95230.28
2023-04-12T13:59:35.248Z,95232.59
2023-04-12T14:02:02.735Z,95230.94
2023-04-12T14:04:31.514Z,95240.47
2023-04-12T14:06:59.354Z,95234.13
2023-04-12T14:09:31.953Z,95226.59
2023-04-12T14:12:01.619Z,95228.69
2023-04-12T14:14:28.585Z,95226.66
2023-04-12T14:17:01.730Z,95219.16
2023-04-12T14:19:28.785Z,95216.75
2023-04-12T14:21:55.805Z,95221.97
2023-04-12T14:24:23.410Z,95208.56
2023-04-12T14:26:51.107Z,95213.66
2023-04-12T14:29:17.998Z,95203.63
2023-04-12T14:31:44.947Z,95207.81
2023-04-12T14:34:13.368Z,95208.88
2023-04-12T14:36:40.654Z,95206.59
2023-04-12T14:39:10.450Z,95199.59
2023-04-12T14:41:38.243Z,95192.19
2023-04-12T14:44:05.608Z,95207.63
2023-04-12T14:46:32.750Z,95195.88
2023-04-12T14:49:01.400Z,95184.78
2023-04-12T14:51:29.596Z,95188.41
2023-04-12T14:53:57.085Z,95188.66
2023-04-12T14:56:28.663Z,95178.97
2023-04-12T14:58:57.448Z,95184.22
2023-04-12T15:01:25.700Z,95177.38
2023-04-12T15:03:53.712Z,95179.78
2023-04-12T15:06:23.416Z,95170.47
2023-04-12T15:08:55.228Z,95174.66
2023-04-12T15:11:26.433Z,95177.28
2023-04-12T15:13:53.755Z,95167.31
2023-04-12T15:16:20.806Z,95165.97
2023-04-12T15:18:47.764Z,95160.97
2023-04-12T15:21:14.727Z,95158.63
2023-04-12T15:23:41.750Z,95166.59
2023-04-12T15:26:12.073Z,95166.50
2023-04-12T15:28:39.265Z,95165.16
2023-04-12T15:31:07.044Z,95161.84
2023-04-12T15:33:37.283Z,95158.38
2023-04-12T15:36:05.498Z,95153.31
2023-04-12T15:38:32.646Z,95154.47
2023-04-12T15:41:01.256Z,95159.16
2023-04-12T15:43:28.814Z,95146.22
2023-04-12T15:45:56.053Z,95149.47
2023-04-12T15:48:24.593Z,95160.69
2023-04-12T15:50:53.599Z,95153.69
2023-04-12T15:53:25.513Z,95160.41
2023-04-12T15:55:55.313Z,95155.59
2023-04-12T15:58:23.909Z,95155.50
2023-04-12T16:00:52.948Z,95142.03
2023-04-12T16:03:23.236Z,95142.41
2023-04-12T16:05:53.569Z,95140.16
2023-04-12T16:08:21.068Z,95141.47
2023-04-12T16:10:49.005Z,95150.41
2023-04-12T16:13:16.175Z,95137.84
2023-04-12T16:15:43.197Z,95131.41
2023-04-12T16:18:10.188Z,95135.78
2023-04-12T16:20:37.500Z,95141.78
2023-04-12T16:23:05.159Z,95133.59
2023-04-12T16:25:33.237Z,95122.81
2023-04-12T16:28:02.829Z,95123.56
2023-04-12T16:30:32.869Z,95127.84
2023-04-12T16:32:59.958Z,95121.38
2023-04-12T16:35:26.993Z,95125.38
2023-04-12T16:37:54.783Z,95124.16
2023-04-12T16:40:22.141Z,95124.66
2023-04-12T16:42:49.018Z,95118.69
2023-04-12T16:45:15.897Z,95115.78
2023-04-12T16:47:45.990Z,95122.88
2023-04-12T16:50:13.575Z,95117.81
2023-04-12T16:52:41.279Z,95106.38
2023-04-12T16:55:12.696Z,95092.47
2023-04-12T16:57:41.840Z,95101.16
2023-04-12T17:00:19.183Z,95095.78
2023-04-12T17:02:49.115Z,95093.72
2023-04-12T17:05:18.142Z,95089.19
2023-04-12T17:07:50.623Z,95094.00
2023-04-12T17:10:23.115Z,95088.66
2023-04-12T17:12:52.906Z,95084.34
2023-04-12T17:15:23.439Z,95098.25
2023-04-12T17:17:59.914Z,95087.06
2023-04-12T17:20:27.220Z,95074.81
2023-04-12T17:22:55.412Z,95087.31
2023-04-12T17:25:24.152Z,95084.19
2023-04-12T17:27:53.654Z,95075.97
2023-04-12T17:30:20.459Z,95082.88
2023-04-12T17:32:47.600Z,95077.56
2023-04-12T17:35:14.592Z,95087.66
2023-04-12T17:37:41.741Z,95075.97
2023-04-12T17:40:12.972Z,95076.50
2023-04-12T17:42:41.891Z,95079.72
2023-04-12T17:45:14.418Z,95079.16
2023-04-12T17:47:42.618Z,95066.94
2023-04-12T17:50:11.641Z,95066.97
2023-04-12T17:52:38.786Z,95064.34
2023-04-12T17:55:09.069Z,95066.50
2023-04-12T17:57:35.997Z,95063.31
2023-04-12T18:00:03.411Z,95073.88
2023-04-12T18:02:30.393Z,95073.09
2023-04-12T18:04:57.417Z,95072.31
2023-04-12T18:07:24.280Z,95078.69
2023-04-12T18:09:51.238Z,95079.69
2023-04-12T18:12:18.317Z,95081.34
2023-04-12T18:14:45.340Z,95078.97
2023-04-12T18:17:12.256Z,95085.53
2023-04-12T18:19:39.195Z,95100.38
2023-04-12T18:22:08.350Z,95099.84
2023-04-12T18:24:36.450Z,95103.03
2023-04-12T18:27:05.272Z,95100.88
2023-04-12T18:29:32.851Z,95101.16
2023-04-12T18:32:00.039Z,95101.31
2023-04-12T18:34:27.561Z,95108.59
2023-04-12T18:36:54.482Z,95107.47
2023-04-12T18:39:24.237Z,95106.13
2023-04-12T18:41:51.256Z,95117.28
2023-04-12T18:44:19.804Z,95129.00
2023-04-12T18:46:46.868Z,95123.13
2023-04-12T18:49:14.536Z,95127.66
2023-04-12T18:51:42.844Z,95150.75
2023-04-12T18:54:15.201Z,95153.03
2023-04-12T18:56:44.750Z,95161.22
2023-04-12T18:59:15.870Z,95163.69
2023-04-12T19:01:42.977Z,95170.28
2023-04-12T19:04:12.610Z,95177.44
2023-04-12T19:06:39.576Z,95174.47
2023-04-12T19:09:06.621Z,95184.50
2023-04-12T19:11:36.278Z,95184.00
2023-04-12T19:14:03.851Z,95192.31
2023-04-12T19:16:30.969Z,95196.09
2023-04-12T19:18:59.963Z,95189.19
2023-04-12T19:21:29.285Z,95214.47
2023-04-12T19:23:56.933Z,95216.22
2023-04-12T19:26:24.134Z,95217.31
2023-04-12T19:28:55.474Z,95232.13
2023-04-12T19:31:23.742Z,95229.09
2023-04-12T19:33:50.882Z,95236.28
2023-04-12T19:36:17.791Z,95239.72
2023-04-12T19:38:47.782Z,95248.56
2023-04-12T19:41:16.179Z,95245.75
2023-04-12T19:43:43.129Z,95249.78
2023-04-12T19:46:10.189Z,95247.31
2023-04-12T19:48:37.837Z,95250.00
2023-04-12T19:51:05.447Z,95254.69
2023-04-12T19:53:33.348Z,95243.34
2023-04-12T19:56:00.858Z,95246.53
2023-04-12T19:58:27.728Z,95261.78
2023-04-12T20:00:55.610Z,95266.25
2023-04-12T20:03:23.415Z,95255.69
2023-04-12T20:05:52.898Z,95263.50
2023-04-12T20:08:19.810Z,95257.72
2023-04-12T20:10:46.711Z,95260.28
2023-04-12T20:13:15.354Z,95255.28
2023-04-12T20:15:43.204Z,95261.03
2023-04-12T20:18:12.858Z,95266.75
2023-04-12T20:20:44.861Z,95270.09
2023-04-12T20:23:15.374Z,95261.94
2023-04-12T20:25:42.589Z,95265.63
2023-04-12T20:28:09.739Z,95268.91
2023-04-12T20:30:37.180Z,95266.75
2023-04-12T20:33:04.503Z,95266.03
2023-04-12T20:35:31.966Z,95271.06
2023-04-12T20:37:59.579Z,95268.34
2023-04-12T20:40:29.529Z,95280.28
2023-04-12T20:42:59.586Z,95285.78
2023-04-12T20:45:27.186Z,95290.66
2023-04-12T20:47:54.087Z,95296.66
2023-04-12T20:50:23.073Z,95294.72
2023-04-12T20:52:52.187Z,95295.31
2023-04-12T20:55:19.573Z,95299.34
2023-04-12T20:57:46.482Z,95305.63
2023-04-12T21:00:23.742Z,95303.56
2023-04-12T21:02:50.874Z,95317.25
2023-04-12T21:05:17.878Z,95311.09
2023-04-12T21:07:46.416Z,95317.25
2023-04-12T21:10:13.832Z,95323.31
2023-04-12T21:12:41.513Z,95341.53
2023-04-12T21:15:11.666Z,95343.56
2023-04-12T21:17:39.120Z,95344.84
2023-04-12T21:20:13.366Z,95343.16
2023-04-12T21:22:42.980Z,95346.28
2023-04-12T21:25:16.522Z,95348.09
2023-04-12T21:27:45.613Z,95355.38
2023-04-12T21:30:13.647Z,95365.88
2023-04-12T21:32:41.135Z,95359.72
2023-04-12T21:35:09.915Z,95362.94
2023-04-12T21:37:38.977Z,95365.28
2023-04-12T21:40:09.512Z,95362.50
2023-04-12T21:42:40.903Z,95366.81
2023-04-12T21:45:09.790Z,95376.41
2023-04-12T21:47:39.318Z,95383.00
2023-04-12T21:50:08.117Z,95378.56
2023-04-12T21:52:35.279Z,95391.25
2023-04-12T21:55:03.102Z,95392.22
2023-04-12T21:57:31.225Z,95388.69
2023-04-12T21:59:58.154Z,95387.06
2023-04-12T22:02:26.051Z,95398.94
2023-04-12T22:04:53.818Z,95388.69
2023-04-12T22:07:21.536Z,95395.72
2023-04-12T22:09:48.480Z,95401.53
2023-04-12T22:12:17.887Z,95400.97
2023-04-12T22:14:49.811Z,95399.25
2023-04-12T22:17:18.677Z,95400.47
2023-04-12T22:19:45.609Z,95407.22
2023-04-12T22:22:14.180Z,95396.28
2023-04-12T22:24:41.265Z,95399.50
2023-04-12T22:27:09.274Z,95403.59
2023-04-12T22:29:37.695Z,95392.50
2023-04-12T22:32:04.863Z,95397.91
2023-04-12T22:34:32.446Z,95396.06
2023-04-12T22:36:59.251Z,95390.59
2023-04-12T22:39:27.210Z,95394.59
2023-04-12T22:41:57.150Z,95399.66
2023-04-12T22:44:25.982Z,95396.28
2023-04-12T22:46:56.630Z,95389.00
2023-04-12T22:49:28.156Z,95386.34
2023-04-12T22:51:55.827Z,95379.03
2023-04-12T22:54:26.105Z,95378.81
2023-04-12T22:56:52.967Z,95385.34
2023-04-12T22:59:22.306Z,95395.31
2023-04-12T23:01:49.318Z,95390.03
2023-04-12T23:04:16.934Z,95390.03
2023-04-12T23:06:44.554Z,95394.84
2023-04-12T23:09:12.677Z,95387.38
2023-04-12T23:11:41.074Z,95389.75
2023-04-12T23:14:08.865Z,95383.75
2023-04-12T23:16:42.269Z,95381.81
2023-04-12T23:19:09.187Z,95378.50
2023-04-12T23:21:36.322Z,95389.75
2023-04-12T23:24:04.401Z,95383.47
2023-04-12T23:26:34.175Z,95370.78
2023-04-12T23:29:03.565Z,95368.81
2023-04-12T23:31:33.626Z,95376.47
2023-04-12T23:34:05.974Z,95386.97
2023-04-12T23:36:33.891Z,95387.06
2023-04-12T23:39:02.057Z,95381.00
2023-04-12T23:41:31.493Z,95385.81
2023-04-12T23:43:59.540Z,95385.03
2023-04-12T23:46:27.064Z,95388.81
2023-04-12T23:48:53.993Z,95387.88
2023-04-12T23:51:21.999Z,95382.63
2023-04-12T23:53:48.904Z,95386.25
2023-04-12T23:56:15.785Z,95386.25
2023-04-12T23:58:42.703Z,95400.41
